Time;durP1;ratioP1;P1;durP2;ratioP2;P2;SDS_P1;SDS_P2;PMS_P1;PMS_P2;Temp;Humidity;BMP_temperature;BMP_pressure;BME280_temperature;BME280_humidity;BME280_pressure;Samples;Min_cycle;Max_cycle;Signal;HPM_P1;HPM_P2
2022/03/18 00:02:11;;;;;;;10.33;2.20;;;;;;;;;;5051915;28;20227;-58
2022/03/18 00:04:37;;;;;;;12.25;2.13;;;;;;;;;;5052274;28;20242;-58
2022/03/18 00:07:02;;;;;;;7.75;2.22;;;;;;;;;;5070653;28;20674;-59
2022/03/18 00:09:27;;;;;;;6.17;2.10;;;;;;;;;;5072320;28;20225;-58
2022/03/18 00:11:53;;;;;;;9.65;2.53;;;;;;;;;;5071555;28;20667;-58
2022/03/18 00:14:19;;;;;;;10.50;2.17;;;;;;;;;;5071626;28;20203;-58
2022/03/18 00:16:45;;;;;;;8.20;2.23;;;;;;;;;;5072270;28;20214;-58
2022/03/18 00:19:10;;;;;;;11.80;2.83;;;;;;;;;;5070891;28;20237;-58
2022/03/18 00:21:35;;;;;;;12.20;3.57;;;;;;;;;;5071881;28;20220;-58
2022/03/18 00:24:01;;;;;;;12.77;3.77;;;;;;;;;;5053702;28;20272;-58
2022/03/18 00:26:27;;;;;;;11.70;3.67;;;;;;;;;;5053430;28;20214;-58
2022/03/18 00:28:52;;;;;;;14.13;3.80;;;;;;;;;;5072132;28;20222;-58
2022/03/18 00:31:17;;;;;;;10.83;3.57;;;;;;;;;;5071267;28;20215;-58
2022/03/18 00:33:42;;;;;;;12.80;3.17;;;;;;;;;;5071201;28;20218;-58
2022/03/18 00:36:08;;;;;;;10.53;2.90;;;;;;;;;;5070580;28;20669;-58
2022/03/18 00:38:34;;;;;;;9.98;2.53;;;;;;;;;;5053923;28;20272;-58
2022/03/18 00:40:59;;;;;;;10.38;2.92;;;;;;;;;;5070923;28;20688;-58
2022/03/18 00:43:24;;;;;;;11.63;2.60;;;;;;;;;;5071131;28;20222;-58
2022/03/18 00:45:49;;;;;;;13.07;2.60;;;;;;;;;;5056398;28;20299;-58
2022/03/18 00:53:43;;;;;;;8.50;2.60;;;;;;;;;;5046368;28;20249;-57
2022/03/18 00:56:08;;;;;;;12.57;2.73;;;;;;;;;;5055247;28;21108;-57
2022/03/18 00:58:33;;;;;;;8.87;2.27;;;;;;;;;;5044307;28;20219;-58
2022/03/18 01:00:58;;;;;;;10.23;2.70;;;;;;;;;;5042631;28;20681;-57
2022/03/18 01:03:24;;;;;;;11.48;2.63;;;;;;;;;;5044043;28;20229;-57
2022/03/18 01:05:49;;;;;;;10.88;2.33;;;;;;;;;;5041681;28;20276;-57
2022/03/18 01:08:14;;;;;;;10.88;2.95;;;;;;;;;;5053437;28;20328;-58
2022/03/18 01:10:40;;;;;;;8.20;3.20;;;;;;;;;;5041966;28;20230;-58
2022/03/18 01:13:05;;;;;;;10.57;2.87;;;;;;;;;;5034208;28;20238;-57
2022/03/18 01:15:30;;;;;;;11.83;3.13;;;;;;;;;;5039138;28;20254;-58
2022/03/18 01:17:56;;;;;;;12.37;3.37;;;;;;;;;;5041536;28;20265;-58
2022/03/18 01:20:21;;;;;;;13.90;3.20;;;;;;;;;;5059814;28;20289;-57
2022/03/18 01:22:46;;;;;;;11.30;3.37;;;;;;;;;;5060312;28;20622;-58
2022/03/18 01:25:11;;;;;;;10.27;3.23;;;;;;;;;;5060185;28;20214;-58
2022/03/18 01:27:37;;;;;;;10.88;3.20;;;;;;;;;;5050551;28;20208;-58
2022/03/18 01:30:02;;;;;;;10.37;2.70;;;;;;;;;;5035976;28;20214;-58
2022/03/18 01:32:28;;;;;;;10.43;3.00;;;;;;;;;;5033915;28;20207;-57
2022/03/18 01:34:54;;;;;;;12.00;3.20;;;;;;;;;;5033646;28;20215;-57
2022/03/18 01:37:19;;;;;;;12.87;2.93;;;;;;;;;;5055270;28;20724;-57
2022/03/18 01:39:44;;;;;;;10.07;3.37;;;;;;;;;;5060738;28;20207;-57
2022/03/18 01:42:10;;;;;;;11.90;2.73;;;;;;;;;;5059902;28;20324;-58
2022/03/18 01:44:41;;;;;;;12.03;2.83;;;;;;;;;;5055483;28;20203;-57
2022/03/18 01:47:07;;;;;;;9.83;3.07;;;;;;;;;;5059054;28;20582;-58
2022/03/18 01:49:32;;;;;;;13.47;3.27;;;;;;;;;;5060070;28;20670;-57
2022/03/18 01:51:57;;;;;;;8.40;2.77;;;;;;;;;;5057589;28;20882;-57
2022/03/18 01:57:06;;;;;;;9.20;2.70;;;;;;;;;;5052455;28;20217;-58
2022/03/18 01:59:32;;;;;;;9.90;3.00;;;;;;;;;;5033628;28;20211;-57
2022/03/18 02:01:57;;;;;;;12.30;3.43;;;;;;;;;;5052280;28;20682;-58
2022/03/18 02:04:22;;;;;;;11.60;3.63;;;;;;;;;;5056649;28;20225;-57
2022/03/18 02:06:48;;;;;;;12.37;2.87;;;;;;;;;;5040793;28;20218;-58
2022/03/18 02:09:13;;;;;;;14.90;3.27;;;;;;;;;;5041049;28;20226;-57
2022/03/18 02:11:38;;;;;;;9.33;2.93;;;;;;;;;;5059620;28;20217;-57
2022/03/18 02:14:03;;;;;;;10.03;3.00;;;;;;;;;;5059284;28;20212;-57
2022/03/18 02:16:29;;;;;;;11.82;3.20;;;;;;;;;;5052661;28;20214;-57
2022/03/18 02:18:54;;;;;;;11.33;2.97;;;;;;;;;;5051746;28;20237;-57
2022/03/18 02:21:19;;;;;;;11.03;2.93;;;;;;;;;;5053046;28;20222;-58
2022/03/18 02:23:44;;;;;;;14.20;3.53;;;;;;;;;;5059269;28;20253;-58
2022/03/18 02:26:14;;;;;;;10.20;3.13;;;;;;;;;;5058717;28;20206;-57
2022/03/18 02:28:39;;;;;;;13.30;3.10;;;;;;;;;;5059750;28;20214;-58
2022/03/18 02:31:05;;;;;;;8.37;2.43;;;;;;;;;;5041534;28;20305;-57
2022/03/18 02:33:30;;;;;;;9.03;2.77;;;;;;;;;;5059099;28;20217;-57
2022/03/18 02:35:55;;;;;;;11.07;2.83;;;;;;;;;;5060116;28;20989;-58
2022/03/18 02:38:21;;;;;;;13.37;2.70;;;;;;;;;;5053749;28;20275;-57
2022/03/18 02:40:46;;;;;;;10.67;2.47;;;;;;;;;;5051777;28;20236;-58
2022/03/18 02:43:11;;;;;;;12.03;2.93;;;;;;;;;;5051860;28;20854;-58
2022/03/18 02:45:36;;;;;;;11.67;2.57;;;;;;;;;;5044734;28;20261;-57
2022/03/18 02:48:02;;;;;;;9.17;2.70;;;;;;;;;;5038743;28;20214;-57
2022/03/18 02:50:27;;;;;;;9.00;2.73;;;;;;;;;;5040399;28;20603;-57
2022/03/18 02:52:52;;;;;;;8.57;2.40;;;;;;;;;;5040000;28;20698;-57
2022/03/18 02:55:18;;;;;;;8.60;2.30;;;;;;;;;;5038916;28;20215;-57
2022/03/18 02:57:44;;;;;;;8.93;2.30;;;;;;;;;;5040050;28;20306;-58
2022/03/18 03:00:09;;;;;;;7.73;2.47;;;;;;;;;;5039717;28;20267;-58
2022/03/18 03:02:35;;;;;;;10.80;2.50;;;;;;;;;;5052749;28;20246;-58
2022/03/18 03:07:59;;;;;;;11.70;2.30;;;;;;;;;;5038832;28;20256;-57
2022/03/18 03:10:24;;;;;;;9.43;2.50;;;;;;;;;;5043287;28;20348;-58
2022/03/18 03:12:50;;;;;;;10.90;2.30;;;;;;;;;;5043771;28;20821;-57
2022/03/18 03:15:15;;;;;;;11.37;2.50;;;;;;;;;;5042763;28;20218;-57
2022/03/18 03:17:40;;;;;;;9.30;2.20;;;;;;;;;;5043673;28;20223;-58
2022/03/18 03:20:08;;;;;;;10.27;2.63;;;;;;;;;;5043058;28;20625;-57
2022/03/18 03:22:33;;;;;;;9.97;2.10;;;;;;;;;;5040359;28;20219;-58
2022/03/18 03:24:59;;;;;;;8.97;2.00;;;;;;;;;;5036254;28;20310;-58
2022/03/18 03:27:30;;;;;;;9.53;2.20;;;;;;;;;;5035748;28;20905;-57
2022/03/18 03:29:58;;;;;;;8.23;2.00;;;;;;;;;;5056813;28;20214;-57
2022/03/18 03:32:23;;;;;;;11.17;2.40;;;;;;;;;;5044512;28;20717;-58
2022/03/18 03:34:48;;;;;;;9.47;2.10;;;;;;;;;;5063052;28;20249;-58
2022/03/18 03:37:14;;;;;;;6.93;1.90;;;;;;;;;;5061520;28;20218;-57
2022/03/18 03:39:39;;;;;;;8.37;1.90;;;;;;;;;;5062524;28;20287;-57
2022/03/18 03:42:04;;;;;;;10.17;2.20;;;;;;;;;;5062298;28;20225;-58
2022/03/18 03:44:30;;;;;;;11.53;2.07;;;;;;;;;;5058376;28;20226;-58
2022/03/18 03:46:55;;;;;;;9.00;2.13;;;;;;;;;;5035729;28;20377;-58
2022/03/18 03:49:20;;;;;;;13.33;2.40;;;;;;;;;;5054078;28;20222;-58
2022/03/18 03:51:45;;;;;;;12.83;2.70;;;;;;;;;;5055155;28;20230;-58
2022/03/18 03:54:11;;;;;;;10.10;2.30;;;;;;;;;;5061149;28;20214;-58
2022/03/18 03:56:36;;;;;;;16.10;2.40;;;;;;;;;;5062413;28;20210;-57
2022/03/18 03:59:01;;;;;;;11.18;2.75;;;;;;;;;;5057931;28;20203;-57
2022/03/18 04:01:27;;;;;;;14.77;2.03;;;;;;;;;;5053986;28;20227;-57
2022/03/18 04:03:54;;;;;;;8.50;2.17;;;;;;;;;;5041949;28;20238;-58
2022/03/18 04:06:20;;;;;;;12.73;2.10;;;;;;;;;;5042176;28;20215;-57
2022/03/18 04:08:46;;;;;;;9.57;1.87;;;;;;;;;;5057287;28;20731;-57
2022/03/18 04:11:11;;;;;;;10.23;2.27;;;;;;;;;;5052295;28;20218;-58
2022/03/18 04:13:37;;;;;;;8.50;2.03;;;;;;;;;;5055378;28;20312;-58
2022/03/18 04:16:02;;;;;;;8.80;2.10;;;;;;;;;;5058716;28;20225;-58
2022/03/18 04:18:27;;;;;;;10.03;2.20;;;;;;;;;;5061629;28;20225;-57
2022/03/18 04:20:53;;;;;;;10.30;2.20;;;;;;;;;;5061869;28;20259;-58
2022/03/18 04:23:18;;;;;;;8.25;1.70;;;;;;;;;;5061555;28;20303;-58
2022/03/18 04:25:43;;;;;;;8.13;2.10;;;;;;;;;;5061245;28;20221;-57
2022/03/18 04:28:09;;;;;;;7.97;1.80;;;;;;;;;;5061579;28;20313;-57
2022/03/18 04:30:34;;;;;;;11.57;2.40;;;;;;;;;;5059355;28;20325;-58
2022/03/18 04:32:59;;;;;;;7.97;2.03;;;;;;;;;;5053815;28;20264;-57
2022/03/18 04:35:25;;;;;;;7.73;2.07;;;;;;;;;;5054060;28;20210;-58
2022/03/18 04:37:50;;;;;;;10.20;2.30;;;;;;;;;;5056831;28;20643;-58
2022/03/18 04:40:15;;;;;;;11.13;2.23;;;;;;;;;;5060526;28;20226;-58
2022/03/18 04:42:41;;;;;;;7.43;1.73;;;;;;;;;;5061267;28;20259;-58
2022/03/18 04:45:07;;;;;;;6.73;1.70;;;;;;;;;;5052656;28;20211;-58
2022/03/18 04:47:33;;;;;;;6.27;1.80;;;;;;;;;;5041183;28;20219;-58
2022/03/18 04:49:59;;;;;;;7.53;1.90;;;;;;;;;;5041875;28;20265;-58
2022/03/18 04:52:24;;;;;;;8.57;2.10;;;;;;;;;;5040941;28;20300;-57
2022/03/18 04:54:50;;;;;;;5.00;1.80;;;;;;;;;;5033375;28;20730;-57
2022/03/18 04:57:15;;;;;;;6.63;1.83;;;;;;;;;;5033800;28;20211;-58
2022/03/18 04:59:40;;;;;;;6.70;1.80;;;;;;;;;;5035451;28;20303;-58
2022/03/18 05:02:06;;;;;;;8.50;1.70;;;;;;;;;;5040452;28;20259;-57
2022/03/18 05:04:31;;;;;;;8.97;2.00;;;;;;;;;;5041690;28;20732;-58
2022/03/18 05:06:56;;;;;;;9.80;1.97;;;;;;;;;;5041900;28;20745;-57
2022/03/18 05:09:23;;;;;;;6.33;1.60;;;;;;;;;;5040436;28;20235;-58
2022/03/18 05:11:48;;;;;;;9.33;2.10;;;;;;;;;;5060770;28;20703;-58
2022/03/18 05:14:14;;;;;;;8.83;2.00;;;;;;;;;;5059768;28;20218;-57
2022/03/18 05:16:42;;;;;;;7.50;1.83;;;;;;;;;;5055831;28;20226;-57
2022/03/18 05:19:08;;;;;;;10.40;1.67;;;;;;;;;;5052969;28;20305;-58
2022/03/18 05:21:33;;;;;;;6.03;1.63;;;;;;;;;;5052523;28;20214;-57
2022/03/18 05:23:58;;;;;;;4.87;1.67;;;;;;;;;;5058390;28;20233;-57
2022/03/18 05:26:24;;;;;;;8.63;1.87;;;;;;;;;;5060318;28;20325;-58
2022/03/18 05:28:49;;;;;;;6.87;1.97;;;;;;;;;;5060051;28;20226;-57
2022/03/18 05:31:14;;;;;;;9.38;1.80;;;;;;;;;;5060552;28;20241;-58
2022/03/18 05:33:39;;;;;;;8.53;1.87;;;;;;;;;;5060633;28;20586;-58
2022/03/18 05:36:05;;;;;;;6.53;1.60;;;;;;;;;;5059486;28;20215;-57
2022/03/18 05:38:30;;;;;;;8.07;1.90;;;;;;;;;;5057508;28;20214;-58
2022/03/18 05:40:55;;;;;;;6.60;1.67;;;;;;;;;;5053296;28;20217;-57
2022/03/18 05:43:21;;;;;;;8.15;1.98;;;;;;;;;;5051528;28;20656;-57
2022/03/18 05:45:46;;;;;;;7.60;2.00;;;;;;;;;;5042113;28;20580;-57
2022/03/18 05:48:12;;;;;;;7.20;1.83;;;;;;;;;;5040079;28;20700;-58
2022/03/18 05:50:37;;;;;;;8.13;1.93;;;;;;;;;;5040221;28;20219;-58
2022/03/18 05:53:02;;;;;;;8.43;2.23;;;;;;;;;;5039972;28;20232;-57
2022/03/18 05:56:52;;;;;;;9.87;2.10;;;;;;;;;;5060122;28;20794;-58
2022/03/18 05:58:14;;;;;;;11.47;2.03;;;;;;;;;;5058984;28;20568;-58
2022/03/18 06:00:40;;;;;;;10.03;2.07;;;;;;;;;;5042950;28;20218;-58
2022/03/18 06:03:07;;;;;;;7.33;2.13;;;;;;;;;;5052384;28;20255;-58
2022/03/18 06:05:32;;;;;;;10.87;2.07;;;;;;;;;;5040585;28;20491;-57
2022/03/18 06:11:48;;;;;;;11.47;2.07;;;;;;;;;;5033981;28;20466;-58
2022/03/18 06:13:26;;;;;;;9.17;2.03;;;;;;;;;;5059760;28;20259;-57
2022/03/18 06:15:52;;;;;;;12.57;2.30;;;;;;;;;;5054519;28;20203;-57
2022/03/18 06:18:17;;;;;;;8.17;1.93;;;;;;;;;;5039771;28;20219;-57
2022/03/18 06:20:42;;;;;;;10.77;2.27;;;;;;;;;;5040180;28;20223;-57
2022/03/18 06:23:08;;;;;;;8.27;1.87;;;;;;;;;;5057897;28;20313;-58
2022/03/18 06:25:33;;;;;;;6.47;1.80;;;;;;;;;;5051953;28;20219;-57
2022/03/18 06:27:58;;;;;;;9.50;2.80;;;;;;;;;;5051273;28;20464;-57
2022/03/18 06:30:23;;;;;;;8.07;2.17;;;;;;;;;;5041081;28;20211;-57
2022/03/18 06:32:49;;;;;;;6.07;2.13;;;;;;;;;;5040266;28;20219;-57
2022/03/18 06:35:14;;;;;;;6.73;2.67;;;;;;;;;;5044061;28;20616;-57
2022/03/18 06:37:39;;;;;;;8.73;2.43;;;;;;;;;;5045307;28;20217;-57
2022/03/18 06:40:05;;;;;;;8.33;2.17;;;;;;;;;;5044045;28;20226;-58
2022/03/18 06:42:30;;;;;;;8.37;2.00;;;;;;;;;;5045425;28;20223;-57
2022/03/18 06:44:55;;;;;;;9.07;2.03;;;;;;;;;;5042678;28;20569;-57
2022/03/18 06:47:21;;;;;;;9.80;2.60;;;;;;;;;;5056396;28;20566;-58
2022/03/18 06:49:46;;;;;;;9.48;2.58;;;;;;;;;;5056224;28;20240;-58
2022/03/18 06:52:11;;;;;;;5.57;2.22;;;;;;;;;;5055789;28;20324;-57
2022/03/18 06:54:37;;;;;;;7.50;2.05;;;;;;;;;;5061290;28;20218;-58
2022/03/18 06:57:02;;;;;;;6.00;2.15;;;;;;;;;;5063337;28;20214;-58
2022/03/18 06:59:27;;;;;;;8.98;2.05;;;;;;;;;;5056722;28;20317;-57
2022/03/18 07:01:54;;;;;;;9.52;2.30;;;;;;;;;;5040013;28;20594;-58
2022/03/18 07:04:19;;;;;;;8.35;2.20;;;;;;;;;;5043207;28;20218;-57
2022/03/18 07:06:46;;;;;;;8.00;2.20;;;;;;;;;;5042084;28;20622;-58
2022/03/18 07:09:11;;;;;;;7.82;2.40;;;;;;;;;;5041548;28;20242;-58
2022/03/18 07:11:36;;;;;;;8.00;2.50;;;;;;;;;;5056063;28;20301;-58
2022/03/18 07:14:02;;;;;;;5.85;2.38;;;;;;;;;;5054479;28;20214;-58
2022/03/18 07:19:11;;;;;;;8.65;2.58;;;;;;;;;;5062650;28;20733;-59
2022/03/18 07:21:36;;;;;;;5.50;2.42;;;;;;;;;;5062575;28;20256;-58
2022/03/18 07:24:01;;;;;;;9.30;2.88;;;;;;;;;;5062344;28;20800;-58
2022/03/18 07:26:26;;;;;;;8.05;2.78;;;;;;;;;;5063250;28;20209;-58
2022/03/18 07:28:52;;;;;;;9.80;2.85;;;;;;;;;;5062287;28;20213;-58
2022/03/18 07:31:17;;;;;;;11.05;2.85;;;;;;;;;;5060597;28;20810;-58
2022/03/18 07:33:42;;;;;;;11.27;2.85;;;;;;;;;;5055814;28;20221;-58
2022/03/18 07:36:08;;;;;;;11.63;3.85;;;;;;;;;;5054389;28;20991;-59
2022/03/18 07:38:33;;;;;;;13.88;4.40;;;;;;;;;;5057169;28;20210;-58
2022/03/18 07:40:58;;;;;;;15.57;5.70;;;;;;;;;;5062945;28;20287;-58
2022/03/18 07:43:23;;;;;;;14.75;4.78;;;;;;;;;;5061590;28;20237;-58
2022/03/18 07:45:49;;;;;;;16.60;5.07;;;;;;;;;;5048337;28;20219;-58
2022/03/18 07:48:14;;;;;;;15.05;4.72;;;;;;;;;;5043250;28;20326;-58
2022/03/18 07:50:39;;;;;;;18.30;4.97;;;;;;;;;;5061515;28;20523;-58
2022/03/18 07:53:06;;;;;;;17.95;4.90;;;;;;;;;;5062102;28;20238;-58
2022/03/18 07:55:31;;;;;;;17.55;5.00;;;;;;;;;;5055502;28;20240;-59
2022/03/18 07:57:57;;;;;;;13.77;5.35;;;;;;;;;;5054573;28;20721;-59
2022/03/18 08:00:22;;;;;;;13.02;5.25;;;;;;;;;;5042417;28;20214;-59
2022/03/18 08:02:48;;;;;;;11.88;5.15;;;;;;;;;;5051504;28;20226;-59
2022/03/18 08:05:13;;;;;;;14.45;4.90;;;;;;;;;;5055469;28;20207;-59
2022/03/18 08:07:39;;;;;;;10.25;4.28;;;;;;;;;;5052538;28;20204;-59
2022/03/18 08:10:05;;;;;;;18.80;4.95;;;;;;;;;;5033379;28;20215;-59
2022/03/18 08:12:30;;;;;;;14.43;4.45;;;;;;;;;;5056702;28;20724;-59
2022/03/18 08:14:56;;;;;;;13.55;4.15;;;;;;;;;;5060674;28;20708;-59
2022/03/18 08:17:21;;;;;;;14.52;4.53;;;;;;;;;;5050682;28;20215;-60
2022/03/18 08:19:47;;;;;;;11.65;4.20;;;;;;;;;;5051708;28;20261;-59
2022/03/18 08:22:12;;;;;;;11.35;4.10;;;;;;;;;;5051636;28;20783;-60
2022/03/18 08:24:37;;;;;;;15.15;4.40;;;;;;;;;;5051610;28;20211;-60
2022/03/18 08:27:03;;;;;;;11.60;3.80;;;;;;;;;;5051609;28;20215;-59
2022/03/18 08:29:28;;;;;;;9.57;3.80;;;;;;;;;;5052085;28;20710;-60
2022/03/18 08:31:53;;;;;;;15.00;4.53;;;;;;;;;;5051143;28;20633;-60
2022/03/18 08:34:20;;;;;;;12.80;4.22;;;;;;;;;;5051631;28;20214;-60
2022/03/18 08:36:45;;;;;;;12.77;4.28;;;;;;;;;;5051758;28;20241;-60
2022/03/18 08:39:11;;;;;;;14.73;4.63;;;;;;;;;;5050681;28;20203;-60
2022/03/18 08:41:36;;;;;;;12.38;3.97;;;;;;;;;;5051759;28;20545;-60
2022/03/18 08:44:01;;;;;;;15.40;4.25;;;;;;;;;;5051517;28;20222;-60
2022/03/18 08:46:26;;;;;;;11.15;3.83;;;;;;;;;;5050917;28;20231;-60
2022/03/18 08:48:52;;;;;;;16.98;4.38;;;;;;;;;;5051681;28;20215;-60
2022/03/18 08:51:17;;;;;;;12.82;4.18;;;;;;;;;;5050901;28;20208;-60
2022/03/18 08:53:42;;;;;;;13.68;5.20;;;;;;;;;;5050757;28;20234;-60
2022/03/18 08:56:08;;;;;;;21.48;5.78;;;;;;;;;;5050606;28;20215;-60
2022/03/18 08:58:33;;;;;;;14.90;4.95;;;;;;;;;;5051434;28;20230;-60
2022/03/18 09:00:58;;;;;;;13.55;5.10;;;;;;;;;;5066842;28;20310;-60
2022/03/18 09:03:24;;;;;;;15.43;4.70;;;;;;;;;;5050843;28;20310;-60
2022/03/18 09:05:49;;;;;;;13.90;4.85;;;;;;;;;;5064274;28;20271;-60
2022/03/18 09:08:14;;;;;;;12.00;4.30;;;;;;;;;;5067681;28;20218;-60
2022/03/18 09:10:40;;;;;;;12.63;4.47;;;;;;;;;;5067489;28;20571;-59
2022/03/18 09:13:06;;;;;;;13.02;4.10;;;;;;;;;;5066983;28;20247;-59
2022/03/18 09:15:31;;;;;;;9.45;3.83;;;;;;;;;;5069490;28;20681;-59
2022/03/18 09:17:57;;;;;;;13.70;4.50;;;;;;;;;;5052209;28;20260;-59
2022/03/18 09:20:22;;;;;;;11.93;3.85;;;;;;;;;;5066694;28;20219;-59
2022/03/18 09:22:47;;;;;;;9.77;3.75;;;;;;;;;;5070944;28;20226;-59
2022/03/18 09:25:14;;;;;;;12.07;3.95;;;;;;;;;;5070328;28;20222;-59
2022/03/18 09:27:40;;;;;;;14.13;4.10;;;;;;;;;;5069934;28;20276;-58
2022/03/18 09:30:05;;;;;;;12.43;3.83;;;;;;;;;;5070314;28;20240;-58
2022/03/18 09:32:31;;;;;;;12.48;3.50;;;;;;;;;;5070960;28;20218;-59
2022/03/18 09:34:56;;;;;;;8.57;3.38;;;;;;;;;;5069755;28;20234;-59
2022/03/18 09:37:21;;;;;;;13.35;4.10;;;;;;;;;;5070329;28;20260;-58
2022/03/18 09:39:47;;;;;;;7.82;3.47;;;;;;;;;;5085921;28;20271;-59
2022/03/18 09:42:12;;;;;;;9.90;3.80;;;;;;;;;;5089504;28;20283;-59
2022/03/18 09:44:37;;;;;;;10.57;3.42;;;;;;;;;;5086006;28;20289;-59
2022/03/18 09:47:03;;;;;;;15.93;3.70;;;;;;;;;;5070062;28;20213;-58
2022/03/18 09:49:28;;;;;;;9.63;2.72;;;;;;;;;;5069762;28;20202;-58
2022/03/18 09:51:54;;;;;;;9.40;2.78;;;;;;;;;;5070344;28;20269;-59
2022/03/18 09:54:19;;;;;;;9.23;3.28;;;;;;;;;;5070086;28;20221;-59
2022/03/18 09:56:45;;;;;;;9.05;2.80;;;;;;;;;;5069621;28;20577;-58
2022/03/18 09:59:10;;;;;;;9.57;2.55;;;;;;;;;;5064868;28;20195;-59
2022/03/18 10:01:36;;;;;;;8.32;2.85;;;;;;;;;;5050635;28;20231;-59
2022/03/18 10:04:02;;;;;;;8.65;2.90;;;;;;;;;;5048724;28;20697;-59
2022/03/18 10:06:27;;;;;;;10.15;3.10;;;;;;;;;;5032644;28;20221;-59
2022/03/18 10:08:53;;;;;;;8.88;2.55;;;;;;;;;;5049378;28;20203;-58
2022/03/18 10:11:23;;;;;;;9.05;2.47;;;;;;;;;;5049202;28;20284;-58
2022/03/18 10:13:49;;;;;;;8.93;2.35;;;;;;;;;;5069881;28;20253;-58
2022/03/18 10:16:21;;;;;;;8.05;2.65;;;;;;;;;;5069812;28;20222;-59
2022/03/18 10:18:49;;;;;;;8.38;2.78;;;;;;;;;;5051025;28;20210;-58
2022/03/18 10:21:14;;;;;;;7.93;2.40;;;;;;;;;;5069819;28;20233;-59
2022/03/18 10:23:40;;;;;;;9.15;2.70;;;;;;;;;;5069692;28;20218;-58
2022/03/18 10:26:05;;;;;;;8.15;2.90;;;;;;;;;;5069766;28;20748;-59
2022/03/18 10:28:37;;;;;;;11.80;3.22;;;;;;;;;;5051917;28;20210;-58
2022/03/18 10:31:19;;;;;;;9.00;2.85;;;;;;;;;;5069003;28;20206;-59
2022/03/18 10:37:04;;;;;;;9.50;3.17;;;;;;;;;;5069619;28;20264;-58
2022/03/18 10:39:20;;;;;;;9.18;3.15;;;;;;;;;;5068838;28;20267;-58
2022/03/18 10:41:47;;;;;;;10.23;3.20;;;;;;;;;;5069950;28;20218;-58
2022/03/18 10:44:15;;;;;;;10.15;3.08;;;;;;;;;;5068013;28;20226;-59
2022/03/18 10:46:41;;;;;;;11.27;3.72;;;;;;;;;;5049351;28;20249;-58
2022/03/18 10:49:06;;;;;;;10.20;3.17;;;;;;;;;;5048931;28;20211;-59
2022/03/18 10:51:32;;;;;;;11.00;3.50;;;;;;;;;;5049425;28;20210;-59
2022/03/18 10:53:57;;;;;;;10.52;2.80;;;;;;;;;;5048992;28;20219;-58
2022/03/18 10:56:23;;;;;;;8.45;3.22;;;;;;;;;;5049380;28;20207;-58
2022/03/18 10:58:48;;;;;;;7.57;3.05;;;;;;;;;;5050887;28;20709;-58
2022/03/18 11:01:13;;;;;;;11.05;3.40;;;;;;;;;;5051519;28;20215;-58
2022/03/18 11:03:39;;;;;;;10.63;3.33;;;;;;;;;;5051515;28;20720;-58
2022/03/18 11:06:04;;;;;;;9.50;3.00;;;;;;;;;;5050535;28;20629;-58
2022/03/18 11:08:32;;;;;;;8.38;3.15;;;;;;;;;;5051821;28;20198;-58
2022/03/18 11:11:10;;;;;;;10.50;3.33;;;;;;;;;;5069701;28;20229;-58
2022/03/18 11:13:40;;;;;;;7.95;3.30;;;;;;;;;;5049819;28;20226;-58
2022/03/18 11:16:05;;;;;;;9.13;3.42;;;;;;;;;;5048454;28;20226;-58
2022/03/18 11:18:30;;;;;;;8.10;3.07;;;;;;;;;;5031183;28;20499;-57
2022/03/18 11:20:56;;;;;;;9.38;3.17;;;;;;;;;;5033325;28;20612;-58
2022/03/18 11:23:22;;;;;;;7.47;2.97;;;;;;;;;;5052712;28;20234;-57
2022/03/18 11:25:49;;;;;;;13.60;3.10;;;;;;;;;;5053346;28;20211;-58
2022/03/18 11:28:15;;;;;;;10.80;3.42;;;;;;;;;;5051844;28;20250;-57
2022/03/18 11:30:41;;;;;;;9.40;3.17;;;;;;;;;;5052895;28;20241;-58
2022/03/18 11:33:10;;;;;;;7.47;3.10;;;;;;;;;;5034842;28;20207;-58
2022/03/18 11:35:48;;;;;;;9.65;2.90;;;;;;;;;;5052311;28;20273;-58
2022/03/18 11:38:14;;;;;;;12.07;3.45;;;;;;;;;;5052484;28;20583;-58
2022/03/18 11:40:50;;;;;;;9.25;3.15;;;;;;;;;;5052894;28;20218;-58
2022/03/18 11:43:32;;;;;;;10.77;3.22;;;;;;;;;;5051761;28;20237;-58
2022/03/18 11:46:12;;;;;;;11.57;3.47;;;;;;;;;;5068605;28;20221;-57
2022/03/18 11:48:39;;;;;;;11.05;3.33;;;;;;;;;;5070759;28;20215;-57
2022/03/18 11:51:21;;;;;;;7.82;3.83;;;;;;;;;;5054122;28;20219;-57
2022/03/18 11:53:48;;;;;;;9.15;3.63;;;;;;;;;;5072443;28;20226;-58
2022/03/18 11:56:13;;;;;;;10.73;3.55;;;;;;;;;;5071533;28;20214;-58
2022/03/18 11:58:38;;;;;;;11.30;4.07;;;;;;;;;;5071743;28;20259;-57
2022/03/18 12:01:04;;;;;;;11.82;3.70;;;;;;;;;;5052050;28;20219;-58
2022/03/18 12:03:30;;;;;;;8.77;3.40;;;;;;;;;;5051627;28;20269;-58
2022/03/18 12:05:56;;;;;;;8.63;3.45;;;;;;;;;;5052105;28;20713;-58
2022/03/18 12:08:42;;;;;;;10.27;3.50;;;;;;;;;;5052075;28;20261;-58
2022/03/18 12:11:26;;;;;;;10.13;4.15;;;;;;;;;;5050690;28;20268;-58
2022/03/18 12:13:51;;;;;;;9.10;3.80;;;;;;;;;;5072250;28;20211;-58
2022/03/18 12:16:18;;;;;;;10.18;3.58;;;;;;;;;;5053100;28;20217;-58
2022/03/18 12:18:43;;;;;;;9.85;3.33;;;;;;;;;;5072242;28;20210;-58
2022/03/18 12:21:09;;;;;;;10.52;3.40;;;;;;;;;;5071495;28;20297;-58
2022/03/18 12:23:35;;;;;;;10.90;3.95;;;;;;;;;;5071554;28;20222;-58
2022/03/18 12:26:06;;;;;;;8.20;3.50;;;;;;;;;;5072051;28;20207;-58
2022/03/18 12:28:45;;;;;;;9.15;3.50;;;;;;;;;;5071787;28;20669;-58
2022/03/18 12:31:16;;;;;;;10.68;3.90;;;;;;;;;;5051841;28;20218;-58
2022/03/18 12:33:41;;;;;;;10.80;4.40;;;;;;;;;;5072027;28;20236;-58
2022/03/18 12:36:06;;;;;;;11.27;4.38;;;;;;;;;;5071336;28;20677;-58
2022/03/18 12:38:32;;;;;;;10.63;4.25;;;;;;;;;;5053227;28;20206;-58
2022/03/18 12:40:58;;;;;;;12.10;3.55;;;;;;;;;;5071889;28;20627;-58
2022/03/18 12:43:24;;;;;;;6.47;3.35;;;;;;;;;;5071296;28;20219;-58
2022/03/18 12:45:49;;;;;;;9.55;4.20;;;;;;;;;;5055922;28;20207;-58
2022/03/18 12:48:15;;;;;;;9.40;3.97;;;;;;;;;;5033430;28;20763;-58
2022/03/18 12:50:42;;;;;;;8.93;4.18;;;;;;;;;;5051726;28;20245;-58
2022/03/18 12:53:15;;;;;;;7.63;3.50;;;;;;;;;;5050182;28;20227;-58
2022/03/18 12:55:40;;;;;;;11.13;4.30;;;;;;;;;;5051881;28;20219;-58
2022/03/18 12:58:06;;;;;;;8.77;3.55;;;;;;;;;;5051051;28;20229;-58
2022/03/18 13:00:38;;;;;;;11.20;5.43;;;;;;;;;;5066894;28;20203;-58
2022/03/18 13:03:05;;;;;;;9.15;3.90;;;;;;;;;;5053085;28;20570;-58
2022/03/18 13:05:30;;;;;;;9.63;5.78;;;;;;;;;;5070619;28;20272;-58
2022/03/18 13:07:58;;;;;;;9.48;3.95;;;;;;;;;;5071216;28;20206;-58
2022/03/18 13:10:23;;;;;;;11.80;3.47;;;;;;;;;;5070711;28;20264;-58
2022/03/18 13:12:48;;;;;;;9.35;3.63;;;;;;;;;;5058514;28;20219;-58
2022/03/18 13:15:15;;;;;;;9.90;4.03;;;;;;;;;;5050773;28;20218;-58
2022/03/18 13:17:40;;;;;;;12.60;3.67;;;;;;;;;;5051037;28;20218;-58
2022/03/18 13:20:06;;;;;;;12.00;3.58;;;;;;;;;;5049899;28;20211;-58
2022/03/18 13:22:31;;;;;;;11.13;3.72;;;;;;;;;;5032861;28;20586;-58
2022/03/18 13:24:58;;;;;;;8.05;3.72;;;;;;;;;;5033395;28;20338;-58
2022/03/18 13:27:23;;;;;;;9.15;3.72;;;;;;;;;;5031984;28;20218;-58
2022/03/18 13:35:18;;;;;;;9.48;3.22;;;;;;;;;;5049726;28;20265;-58
2022/03/18 13:38:03;;;;;;;9.10;3.78;;;;;;;;;;5032826;28;20270;-58
2022/03/18 13:40:28;;;;;;;9.10;3.30;;;;;;;;;;5050460;28;20215;-58
2022/03/18 13:43:03;;;;;;;11.18;3.85;;;;;;;;;;5049824;28;20223;-58
2022/03/18 13:45:28;;;;;;;9.65;3.10;;;;;;;;;;5062255;28;20233;-58
2022/03/18 13:47:53;;;;;;;9.23;3.50;;;;;;;;;;5069701;28;20284;-58
2022/03/18 13:50:19;;;;;;;8.30;3.70;;;;;;;;;;5070196;28;20211;-58
2022/03/18 13:52:44;;;;;;;6.88;2.92;;;;;;;;;;5052225;28;20631;-58
2022/03/18 13:55:25;;;;;;;7.18;3.08;;;;;;;;;;5069183;28;20684;-58
2022/03/18 13:57:51;;;;;;;10.23;3.30;;;;;;;;;;5052444;28;20592;-58
2022/03/18 14:00:24;;;;;;;9.02;3.17;;;;;;;;;;5055623;28;20272;-58
2022/03/18 14:02:58;;;;;;;8.35;3.20;;;;;;;;;;5049395;28;20258;-58
2022/03/18 14:05:23;;;;;;;6.82;2.88;;;;;;;;;;5049898;28;20203;-58
2022/03/18 14:07:49;;;;;;;7.25;3.13;;;;;;;;;;5050124;28;20230;-58
2022/03/18 14:10:15;;;;;;;10.20;3.45;;;;;;;;;;5049039;28;20268;-58
2022/03/18 14:12:44;;;;;;;5.78;3.13;;;;;;;;;;5060494;28;20210;-58
2022/03/18 14:15:12;;;;;;;7.80;3.83;;;;;;;;;;5051829;28;20222;-58
2022/03/18 14:17:57;;;;;;;8.90;3.13;;;;;;;;;;5069299;28;20244;-58
2022/03/18 14:20:26;;;;;;;8.73;3.40;;;;;;;;;;5069493;28;20234;-58
2022/03/18 14:22:53;;;;;;;10.15;3.67;;;;;;;;;;5069434;28;20321;-58
2022/03/18 14:25:18;;;;;;;5.85;2.97;;;;;;;;;;5069688;28;20215;-58
2022/03/18 14:27:45;;;;;;;7.63;3.20;;;;;;;;;;5070229;28;20236;-58
2022/03/18 14:30:11;;;;;;;8.30;3.17;;;;;;;;;;5068604;28;20259;-58
2022/03/18 14:32:36;;;;;;;9.80;4.40;;;;;;;;;;5070175;28;20670;-58
2022/03/18 14:35:02;;;;;;;11.32;3.45;;;;;;;;;;5069425;28;20228;-58
2022/03/18 14:37:30;;;;;;;7.85;3.58;;;;;;;;;;5069246;28;20727;-58
2022/03/18 14:39:56;;;;;;;7.97;3.20;;;;;;;;;;5069835;28;20237;-58
2022/03/18 14:42:22;;;;;;;7.18;3.20;;;;;;;;;;5069578;28;20246;-58
2022/03/18 14:44:47;;;;;;;7.72;3.50;;;;;;;;;;5062822;28;20531;-58
2022/03/18 14:47:13;;;;;;;10.15;3.38;;;;;;;;;;5049535;28;20531;-58
2022/03/18 14:49:38;;;;;;;9.07;4.03;;;;;;;;;;5049761;28;20284;-58
2022/03/18 14:52:03;;;;;;;8.15;3.28;;;;;;;;;;5048531;28;20234;-58
2022/03/18 14:57:12;;;;;;;9.70;3.20;;;;;;;;;;5053290;28;20584;-58
2022/03/18 14:59:39;;;;;;;7.43;3.30;;;;;;;;;;5061939;28;20653;-58